sensor_id;sensor_type;location;lat;lon;timestamp;P1;durP1;ratioP1;P2;durP2;ratioP2
19794;SDS011;10057;59.402;17.866;2022-09-29T00:00:44;3.23;;;1.40;;
19794;SDS011;10057;59.402;17.866;2022-09-29T00:03:13;3.77;;;1.67;;
19794;SDS011;10057;59.402;17.866;2022-09-29T00:05:45;3.37;;;1.47;;
19794;SDS011;10057;59.402;17.866;2022-09-29T00:08:15;2.53;;;1.43;;
19794;SDS011;10057;59.402;17.866;2022-09-29T00:10:43;2.70;;;1.30;;
19794;SDS011;10057;59.402;17.866;2022-09-29T00:13:12;3.47;;;1.47;;
19794;SDS011;10057;59.402;17.866;2022-09-29T00:15:42;3.37;;;1.63;;
19794;SDS011;10057;59.402;17.866;2022-09-29T00:18:09;2.23;;;1.30;;
19794;SDS011;10057;59.402;17.866;2022-09-29T00:20:39;3.40;;;1.47;;
19794;SDS011;10057;59.402;17.866;2022-09-29T00:23:06;2.43;;;1.47;;
19794;SDS011;10057;59.402;17.866;2022-09-29T00:25:34;3.37;;;1.50;;
19794;SDS011;10057;59.402;17.866;2022-09-29T00:28:01;2.97;;;1.60;;
19794;SDS011;10057;59.402;17.866;2022-09-29T00:30:30;2.60;;;1.40;;
19794;SDS011;10057;59.402;17.866;2022-09-29T00:32:57;3.93;;;1.40;;
19794;SDS011;10057;59.402;17.866;2022-09-29T00:35:26;4.30;;;1.70;;
19794;SDS011;10057;59.402;17.866;2022-09-29T00:37:53;4.70;;;1.80;;
19794;SDS011;10057;59.402;17.866;2022-09-29T00:40:20;2.10;;;1.37;;
19794;SDS011;10057;59.402;17.866;2022-09-29T00:42:49;7.97;;;1.70;;
19794;SDS011;10057;59.402;17.866;2022-09-29T00:45:18;3.50;;;1.70;;
19794;SDS011;10057;59.402;17.866;2022-09-29T00:48:00;2.27;;;1.40;;
19794;SDS011;10057;59.402;17.866;2022-09-29T00:50:45;2.47;;;1.57;;
19794;SDS011;10057;59.402;17.866;2022-09-29T00:53:15;4.27;;;1.90;;
19794;SDS011;10057;59.402;17.866;2022-09-29T00:55:57;3.33;;;1.73;;
19794;SDS011;10057;59.402;17.866;2022-09-29T01:01:05;2.70;;;1.60;;
19794;SDS011;10057;59.402;17.866;2022-09-29T01:03:37;3.70;;;1.80;;
19794;SDS011;10057;59.402;17.866;2022-09-29T01:06:24;3.40;;;1.40;;
19794;SDS011;10057;59.402;17.866;2022-09-29T01:09:01;3.43;;;1.80;;
19794;SDS011;10057;59.402;17.866;2022-09-29T01:11:33;4.23;;;1.63;;
19794;SDS011;10057;59.402;17.866;2022-09-29T01:14:01;4.43;;;1.73;;
19794;SDS011;10057;59.402;17.866;2022-09-29T01:16:30;4.47;;;1.87;;
19794;SDS011;10057;59.402;17.866;2022-09-29T01:19:02;5.03;;;1.83;;
19794;SDS011;10057;59.402;17.866;2022-09-29T01:33:21;3.23;;;1.97;;
19794;SDS011;10057;59.402;17.866;2022-09-29T01:36:11;4.90;;;2.23;;
19794;SDS011;10057;59.402;17.866;2022-09-29T01:38:50;4.97;;;2.00;;
19794;SDS011;10057;59.402;17.866;2022-09-29T01:41:41;3.83;;;2.00;;
19794;SDS011;10057;59.402;17.866;2022-09-29T01:44:19;5.53;;;2.40;;
19794;SDS011;10057;59.402;17.866;2022-09-29T01:47:01;6.33;;;2.20;;
19794;SDS011;10057;59.402;17.866;2022-09-29T01:49:36;4.20;;;2.00;;
19794;SDS011;10057;59.402;17.866;2022-09-29T01:52:15;3.50;;;1.87;;
19794;SDS011;10057;59.402;17.866;2022-09-29T01:55:20;3.67;;;1.80;;
19794;SDS011;10057;59.402;17.866;2022-09-29T02:00:18;3.67;;;1.93;;
19794;SDS011;10057;59.402;17.866;2022-09-29T02:02:59;5.07;;;2.60;;
19794;SDS011;10057;59.402;17.866;2022-09-29T02:05:46;4.00;;;2.17;;
19794;SDS011;10057;59.402;17.866;2022-09-29T02:08:35;5.83;;;2.40;;
19794;SDS011;10057;59.402;17.866;2022-09-29T02:11:07;5.37;;;2.40;;
19794;SDS011;10057;59.402;17.866;2022-09-29T02:16:24;5.20;;;2.70;;
19794;SDS011;10057;59.402;17.866;2022-09-29T02:19:00;4.37;;;2.50;;
19794;SDS011;10057;59.402;17.866;2022-09-29T02:21:33;6.63;;;2.40;;
19794;SDS011;10057;59.402;17.866;2022-09-29T02:23:59;6.73;;;2.67;;
19794;SDS011;10057;59.402;17.866;2022-09-29T02:26:27;6.10;;;2.40;;
19794;SDS011;10057;59.402;17.866;2022-09-29T02:28:58;5.70;;;2.70;;
19794;SDS011;10057;59.402;17.866;2022-09-29T02:31:26;4.73;;;2.73;;
19794;SDS011;10057;59.402;17.866;2022-09-29T02:33:53;4.73;;;2.53;;
19794;SDS011;10057;59.402;17.866;2022-09-29T02:39:25;7.97;;;2.80;;
19794;SDS011;10057;59.402;17.866;2022-09-29T02:45:14;5.13;;;2.60;;
19794;SDS011;10057;59.402;17.866;2022-09-29T02:48:02;5.10;;;2.70;;
19794;SDS011;10057;59.402;17.866;2022-09-29T03:01:03;4.80;;;2.70;;
19794;SDS011;10057;59.402;17.866;2022-09-29T03:03:31;4.43;;;2.63;;
19794;SDS011;10057;59.402;17.866;2022-09-29T03:05:57;4.10;;;2.50;;
19794;SDS011;10057;59.402;17.866;2022-09-29T03:08:24;4.80;;;2.23;;
19794;SDS011;10057;59.402;17.866;2022-09-29T03:10:51;5.37;;;2.87;;
19794;SDS011;10057;59.402;17.866;2022-09-29T03:13:18;3.97;;;2.50;;
19794;SDS011;10057;59.402;17.866;2022-09-29T03:15:44;4.37;;;2.37;;
19794;SDS011;10057;59.402;17.866;2022-09-29T03:18:11;5.67;;;2.77;;
19794;SDS011;10057;59.402;17.866;2022-09-29T03:20:38;4.67;;;2.77;;
19794;SDS011;10057;59.402;17.866;2022-09-29T03:23:04;4.50;;;2.40;;
19794;SDS011;10057;59.402;17.866;2022-09-29T03:25:31;4.30;;;2.50;;
19794;SDS011;10057;59.402;17.866;2022-09-29T03:27:58;5.93;;;2.60;;
19794;SDS011;10057;59.402;17.866;2022-09-29T03:30:24;5.53;;;2.50;;
19794;SDS011;10057;59.402;17.866;2022-09-29T03:32:51;4.30;;;2.60;;
19794;SDS011;10057;59.402;17.866;2022-09-29T03:35:19;5.17;;;2.70;;
19794;SDS011;10057;59.402;17.866;2022-09-29T03:37:45;5.77;;;2.90;;
19794;SDS011;10057;59.402;17.866;2022-09-29T03:40:12;4.90;;;2.60;;
19794;SDS011;10057;59.402;17.866;2022-09-29T03:42:39;5.87;;;2.60;;
19794;SDS011;10057;59.402;17.866;2022-09-29T03:45:06;6.73;;;2.60;;
19794;SDS011;10057;59.402;17.866;2022-09-29T03:47:33;4.27;;;2.77;;
19794;SDS011;10057;59.402;17.866;2022-09-29T03:49:59;6.30;;;2.60;;
19794;SDS011;10057;59.402;17.866;2022-09-29T03:52:26;5.13;;;2.80;;
19794;SDS011;10057;59.402;17.866;2022-09-29T03:54:53;6.60;;;2.50;;
19794;SDS011;10057;59.402;17.866;2022-09-29T03:57:19;4.60;;;2.50;;
19794;SDS011;10057;59.402;17.866;2022-09-29T03:59:46;7.17;;;2.77;;
19794;SDS011;10057;59.402;17.866;2022-09-29T04:02:12;3.97;;;2.50;;
19794;SDS011;10057;59.402;17.866;2022-09-29T04:04:39;4.73;;;2.60;;
19794;SDS011;10057;59.402;17.866;2022-09-29T04:07:06;5.07;;;2.27;;
19794;SDS011;10057;59.402;17.866;2022-09-29T04:09:33;4.83;;;2.60;;
19794;SDS011;10057;59.402;17.866;2022-09-29T04:11:59;7.27;;;2.63;;
19794;SDS011;10057;59.402;17.866;2022-09-29T04:14:26;5.77;;;2.33;;
19794;SDS011;10057;59.402;17.866;2022-09-29T04:16:53;5.23;;;2.33;;
19794;SDS011;10057;59.402;17.866;2022-09-29T04:19:19;4.03;;;2.20;;
19794;SDS011;10057;59.402;17.866;2022-09-29T04:21:46;5.43;;;2.80;;
19794;SDS011;10057;59.402;17.866;2022-09-29T04:24:13;5.17;;;2.80;;
19794;SDS011;10057;59.402;17.866;2022-09-29T04:26:39;5.47;;;2.67;;
19794;SDS011;10057;59.402;17.866;2022-09-29T04:29:06;4.43;;;2.70;;
19794;SDS011;10057;59.402;17.866;2022-09-29T04:31:33;5.77;;;2.73;;
19794;SDS011;10057;59.402;17.866;2022-09-29T04:34:00;4.73;;;2.50;;
19794;SDS011;10057;59.402;17.866;2022-09-29T04:36:26;6.13;;;3.00;;
19794;SDS011;10057;59.402;17.866;2022-09-29T04:38:53;5.83;;;2.80;;
19794;SDS011;10057;59.402;17.866;2022-09-29T04:41:20;4.80;;;2.87;;
19794;SDS011;10057;59.402;17.866;2022-09-29T04:43:46;4.83;;;2.53;;
19794;SDS011;10057;59.402;17.866;2022-09-29T04:46:13;4.43;;;2.57;;
19794;SDS011;10057;59.402;17.866;2022-09-29T04:48:41;6.13;;;2.60;;
19794;SDS011;10057;59.402;17.866;2022-09-29T04:51:08;4.43;;;2.23;;
19794;SDS011;10057;59.402;17.866;2022-09-29T04:53:35;4.20;;;2.50;;
19794;SDS011;10057;59.402;17.866;2022-09-29T04:56:07;5.23;;;2.47;;
19794;SDS011;10057;59.402;17.866;2022-09-29T04:58:34;15.17;;;4.43;;
19794;SDS011;10057;59.402;17.866;2022-09-29T05:01:05;4.23;;;2.70;;
19794;SDS011;10057;59.402;17.866;2022-09-29T05:03:38;5.30;;;2.40;;
19794;SDS011;10057;59.402;17.866;2022-09-29T05:06:05;4.47;;;2.50;;
19794;SDS011;10057;59.402;17.866;2022-09-29T05:08:34;6.37;;;2.50;;
19794;SDS011;10057;59.402;17.866;2022-09-29T05:11:07;6.77;;;2.43;;
19794;SDS011;10057;59.402;17.866;2022-09-29T05:13:35;3.50;;;2.13;;
19794;SDS011;10057;59.402;17.866;2022-09-29T05:16:03;4.60;;;2.30;;
19794;SDS011;10057;59.402;17.866;2022-09-29T05:18:35;4.20;;;2.50;;
19794;SDS011;10057;59.402;17.866;2022-09-29T05:21:02;4.30;;;2.40;;
19794;SDS011;10057;59.402;17.866;2022-09-29T05:23:50;5.07;;;2.47;;
19794;SDS011;10057;59.402;17.866;2022-09-29T05:26:16;7.10;;;2.40;;
19794;SDS011;10057;59.402;17.866;2022-09-29T05:28:44;4.43;;;2.50;;
19794;SDS011;10057;59.402;17.866;2022-09-29T05:31:13;3.20;;;2.20;;
19794;SDS011;10057;59.402;17.866;2022-09-29T05:33:40;7.27;;;2.27;;
19794;SDS011;10057;59.402;17.866;2022-09-29T05:36:07;3.53;;;1.97;;
19794;SDS011;10057;59.402;17.866;2022-09-29T05:38:37;5.60;;;2.00;;
19794;SDS011;10057;59.402;17.866;2022-09-29T05:41:08;4.43;;;2.43;;
19794;SDS011;10057;59.402;17.866;2022-09-29T05:43:37;5.80;;;2.50;;
19794;SDS011;10057;59.402;17.866;2022-09-29T05:46:06;7.57;;;2.43;;
19794;SDS011;10057;59.402;17.866;2022-09-29T05:48:36;3.87;;;2.30;;
19794;SDS011;10057;59.402;17.866;2022-09-29T05:51:07;6.10;;;2.83;;
19794;SDS011;10057;59.402;17.866;2022-09-29T05:53:37;9.27;;;2.30;;
19794;SDS011;10057;59.402;17.866;2022-09-29T05:56:05;4.13;;;2.40;;
19794;SDS011;10057;59.402;17.866;2022-09-29T05:58:40;4.60;;;2.40;;
19794;SDS011;10057;59.402;17.866;2022-09-29T06:01:08;7.23;;;2.60;;
19794;SDS011;10057;59.402;17.866;2022-09-29T06:03:39;4.23;;;2.50;;
19794;SDS011;10057;59.402;17.866;2022-09-29T06:06:07;4.90;;;2.13;;
19794;SDS011;10057;59.402;17.866;2022-09-29T06:08:39;5.83;;;2.10;;
19794;SDS011;10057;59.402;17.866;2022-09-29T06:11:13;5.23;;;2.33;;
19794;SDS011;10057;59.402;17.866;2022-09-29T06:13:49;5.13;;;2.10;;
19794;SDS011;10057;59.402;17.866;2022-09-29T06:16:17;3.23;;;1.97;;
19794;SDS011;10057;59.402;17.866;2022-09-29T06:18:46;6.83;;;2.40;;
19794;SDS011;10057;59.402;17.866;2022-09-29T06:21:17;4.53;;;1.97;;
19794;SDS011;10057;59.402;17.866;2022-09-29T06:23:45;6.00;;;2.20;;
19794;SDS011;10057;59.402;17.866;2022-09-29T06:26:13;3.97;;;2.03;;
19794;SDS011;10057;59.402;17.866;2022-09-29T06:28:48;4.80;;;2.40;;
19794;SDS011;10057;59.402;17.866;2022-09-29T06:31:21;5.80;;;2.30;;
19794;SDS011;10057;59.402;17.866;2022-09-29T06:33:51;4.87;;;2.13;;
19794;SDS011;10057;59.402;17.866;2022-09-29T06:39:13;4.53;;;1.97;;
19794;SDS011;10057;59.402;17.866;2022-09-29T06:41:41;5.70;;;2.07;;
19794;SDS011;10057;59.402;17.866;2022-09-29T06:44:14;4.20;;;2.07;;
19794;SDS011;10057;59.402;17.866;2022-09-29T06:46:41;4.60;;;2.27;;
19794;SDS011;10057;59.402;17.866;2022-09-29T06:49:10;2.50;;;1.63;;
19794;SDS011;10057;59.402;17.866;2022-09-29T06:51:40;3.63;;;1.90;;
19794;SDS011;10057;59.402;17.866;2022-09-29T06:54:12;4.63;;;1.73;;
19794;SDS011;10057;59.402;17.866;2022-09-29T06:56:39;4.60;;;1.67;;
19794;SDS011;10057;59.402;17.866;2022-09-29T06:59:06;2.60;;;1.60;;
19794;SDS011;10057;59.402;17.866;2022-09-29T07:01:36;2.93;;;1.50;;
19794;SDS011;10057;59.402;17.866;2022-09-29T07:04:06;2.93;;;1.80;;
19794;SDS011;10057;59.402;17.866;2022-09-29T07:06:36;3.07;;;1.53;;
19794;SDS011;10057;59.402;17.866;2022-09-29T07:09:03;3.63;;;1.60;;
19794;SDS011;10057;59.402;17.866;2022-09-29T07:11:29;4.43;;;2.00;;
19794;SDS011;10057;59.402;17.866;2022-09-29T07:13:58;2.57;;;1.80;;
19794;SDS011;10057;59.402;17.866;2022-09-29T07:16:25;2.53;;;1.60;;
19794;SDS011;10057;59.402;17.866;2022-09-29T07:18:52;6.43;;;1.80;;
19794;SDS011;10057;59.402;17.866;2022-09-29T07:21:19;3.40;;;1.73;;
19794;SDS011;10057;59.402;17.866;2022-09-29T07:23:48;3.67;;;1.70;;
19794;SDS011;10057;59.402;17.866;2022-09-29T07:26:15;5.60;;;2.50;;
19794;SDS011;10057;59.402;17.866;2022-09-29T07:28:43;3.73;;;2.00;;
19794;SDS011;10057;59.402;17.866;2022-09-29T07:31:14;4.03;;;1.80;;
19794;SDS011;10057;59.402;17.866;2022-09-29T07:33:44;5.00;;;2.33;;
19794;SDS011;10057;59.402;17.866;2022-09-29T07:36:14;4.50;;;2.20;;
19794;SDS011;10057;59.402;17.866;2022-09-29T07:38:48;4.67;;;2.00;;
19794;SDS011;10057;59.402;17.866;2022-09-29T07:41:17;3.57;;;1.73;;
19794;SDS011;10057;59.402;17.866;2022-09-29T07:43:49;2.83;;;1.47;;
19794;SDS011;10057;59.402;17.866;2022-09-29T07:46:18;3.07;;;1.67;;
19794;SDS011;10057;59.402;17.866;2022-09-29T07:48:45;2.80;;;1.67;;
19794;SDS011;10057;59.402;17.866;2022-09-29T07:51:15;4.17;;;1.70;;
19794;SDS011;10057;59.402;17.866;2022-09-29T07:53:43;3.43;;;1.40;;
19794;SDS011;10057;59.402;17.866;2022-09-29T07:56:18;3.20;;;1.30;;
19794;SDS011;10057;59.402;17.866;2022-09-29T07:58:49;3.73;;;1.50;;
19794;SDS011;10057;59.402;17.866;2022-09-29T08:01:17;6.20;;;1.27;;
19794;SDS011;10057;59.402;17.866;2022-09-29T08:03:52;3.30;;;1.67;;
19794;SDS011;10057;59.402;17.866;2022-09-29T08:06:24;3.23;;;1.77;;
19794;SDS011;10057;59.402;17.866;2022-09-29T08:08:52;3.87;;;1.70;;
19794;SDS011;10057;59.402;17.866;2022-09-29T08:11:30;2.40;;;1.40;;
19794;SDS011;10057;59.402;17.866;2022-09-29T08:13:59;7.67;;;1.97;;
19794;SDS011;10057;59.402;17.866;2022-09-29T08:16:26;3.30;;;1.60;;
19794;SDS011;10057;59.402;17.866;2022-09-29T08:18:53;2.60;;;1.30;;
19794;SDS011;10057;59.402;17.866;2022-09-29T08:21:19;4.87;;;1.80;;
19794;SDS011;10057;59.402;17.866;2022-09-29T08:23:49;4.63;;;1.67;;
19794;SDS011;10057;59.402;17.866;2022-09-29T08:26:17;4.40;;;1.63;;
19794;SDS011;10057;59.402;17.866;2022-09-29T08:29:02;4.37;;;1.30;;
19794;SDS011;10057;59.402;17.866;2022-09-29T08:31:34;2.87;;;1.40;;
19794;SDS011;10057;59.402;17.866;2022-09-29T08:34:02;2.50;;;1.40;;
19794;SDS011;10057;59.402;17.866;2022-09-29T08:36:29;4.47;;;1.57;;
19794;SDS011;10057;59.402;17.866;2022-09-29T08:38:56;4.53;;;1.70;;
19794;SDS011;10057;59.402;17.866;2022-09-29T08:47:23;2.33;;;1.27;;
19794;SDS011;10057;59.402;17.866;2022-09-29T08:50:16;2.87;;;1.60;;
19794;SDS011;10057;59.402;17.866;2022-09-29T08:52:57;4.13;;;1.53;;
19794;SDS011;10057;59.402;17.866;2022-09-29T08:55:41;2.20;;;1.47;;
19794;SDS011;10057;59.402;17.866;2022-09-29T08:58:11;3.03;;;1.27;;
19794;SDS011;10057;59.402;17.866;2022-09-29T09:01:14;2.13;;;1.40;;
19794;SDS011;10057;59.402;17.866;2022-09-29T09:06:27;3.07;;;1.80;;
19794;SDS011;10057;59.402;17.866;2022-09-29T09:12:06;3.57;;;1.50;;
19794;SDS011;10057;59.402;17.866;2022-09-29T09:14:55;3.93;;;1.67;;
19794;SDS011;10057;59.402;17.866;2022-09-29T09:20:35;3.53;;;1.67;;
19794;SDS011;10057;59.402;17.866;2022-09-29T09:23:19;2.80;;;1.43;;
19794;SDS011;10057;59.402;17.866;2022-09-29T09:26:09;4.33;;;1.70;;
19794;SDS011;10057;59.402;17.866;2022-09-29T09:31:32;8.37;;;1.70;;
19794;SDS011;10057;59.402;17.866;2022-09-29T09:36:55;2.77;;;1.50;;
19794;SDS011;10057;59.402;17.866;2022-09-29T09:39:34;4.13;;;1.67;;
19794;SDS011;10057;59.402;17.866;2022-09-29T09:42:06;6.70;;;1.57;;
19794;SDS011;10057;59.402;17.866;2022-09-29T09:44:41;3.57;;;1.97;;
19794;SDS011;10057;59.402;17.866;2022-09-29T09:47:25;2.20;;;1.50;;
19794;SDS011;10057;59.402;17.866;2022-09-29T09:50:00;2.43;;;1.50;;
19794;SDS011;10057;59.402;17.866;2022-09-29T09:52:45;3.83;;;1.40;;
19794;SDS011;10057;59.402;17.866;2022-09-29T09:55:14;2.17;;;1.30;;
19794;SDS011;10057;59.402;17.866;2022-09-29T10:00:48;2.73;;;1.40;;
19794;SDS011;10057;59.402;17.866;2022-09-29T10:03:27;1.87;;;1.27;;
19794;SDS011;10057;59.402;17.866;2022-09-29T10:05:55;2.97;;;1.53;;
19794;SDS011;10057;59.402;17.866;2022-09-29T10:08:29;3.03;;;1.40;;
19794;SDS011;10057;59.402;17.866;2022-09-29T10:11:08;2.20;;;1.30;;
19794;SDS011;10057;59.402;17.866;2022-09-29T10:13:47;3.00;;;1.30;;
19794;SDS011;10057;59.402;17.866;2022-09-29T10:16:21;2.20;;;1.37;;
19794;SDS011;10057;59.402;17.866;2022-09-29T10:18:54;1.60;;;1.10;;
19794;SDS011;10057;59.402;17.866;2022-09-29T10:23:59;1.97;;;1.33;;
19794;SDS011;10057;59.402;17.866;2022-09-29T10:26:28;1.57;;;1.30;;
19794;SDS011;10057;59.402;17.866;2022-09-29T10:31:59;3.20;;;1.17;;
19794;SDS011;10057;59.402;17.866;2022-09-29T10:34:32;2.20;;;1.40;;
19794;SDS011;10057;59.402;17.866;2022-09-29T10:39:43;4.90;;;1.10;;
19794;SDS011;10057;59.402;17.866;2022-09-29T10:42:19;2.53;;;1.40;;
19794;SDS011;10057;59.402;17.866;2022-09-29T10:44:50;4.77;;;1.80;;
19794;SDS011;10057;59.402;17.866;2022-09-29T10:47:20;1.63;;;1.40;;
19794;SDS011;10057;59.402;17.866;2022-09-29T10:49:50;2.73;;;1.13;;
19794;SDS011;10057;59.402;17.866;2022-09-29T10:52:33;3.97;;;1.20;;
19794;SDS011;10057;59.402;17.866;2022-09-29T10:55:02;4.33;;;1.30;;
19794;SDS011;10057;59.402;17.866;2022-09-29T10:57:30;3.30;;;1.50;;
19794;SDS011;10057;59.402;17.866;2022-09-29T10:59:59;7.10;;;1.50;;
19794;SDS011;10057;59.402;17.866;2022-09-29T11:02:36;3.13;;;1.40;;
19794;SDS011;10057;59.402;17.866;2022-09-29T11:05:16;6.23;;;1.23;;
19794;SDS011;10057;59.402;17.866;2022-09-29T11:07:47;1.70;;;1.00;;
19794;SDS011;10057;59.402;17.866;2022-09-29T11:10:26;1.57;;;1.20;;
19794;SDS011;10057;59.402;17.866;2022-09-29T11:12:59;3.20;;;1.30;;
19794;SDS011;10057;59.402;17.866;2022-09-29T11:15:39;1.83;;;1.20;;
19794;SDS011;10057;59.402;17.866;2022-09-29T11:18:16;2.27;;;1.30;;
19794;SDS011;10057;59.402;17.866;2022-09-29T11:20:47;1.00;;;0.80;;
19794;SDS011;10057;59.402;17.866;2022-09-29T11:23:25;2.43;;;0.80;;
19794;SDS011;10057;59.402;17.866;2022-09-29T11:26:31;2.97;;;1.00;;
19794;SDS011;10057;59.402;17.866;2022-09-29T11:29:11;1.33;;;1.00;;
19794;SDS011;10057;59.402;17.866;2022-09-29T11:34:48;2.23;;;0.70;;
19794;SDS011;10057;59.402;17.866;2022-09-29T11:40:14;1.70;;;0.90;;
19794;SDS011;10057;59.402;17.866;2022-09-29T11:42:59;1.40;;;0.70;;
19794;SDS011;10057;59.402;17.866;2022-09-29T11:45:52;1.80;;;0.87;;
19794;SDS011;10057;59.402;17.866;2022-09-29T11:48:35;2.00;;;0.80;;
19794;SDS011;10057;59.402;17.866;2022-09-29T11:56:26;1.27;;;0.77;;
19794;SDS011;10057;59.402;17.866;2022-09-29T12:02:00;0.67;;;0.60;;
19794;SDS011;10057;59.402;17.866;2022-09-29T12:04:50;1.10;;;0.80;;
19794;SDS011;10057;59.402;17.866;2022-09-29T12:17:45;1.47;;;0.70;;
19794;SDS011;10057;59.402;17.866;2022-09-29T12:20:20;3.07;;;0.77;;
19794;SDS011;10057;59.402;17.866;2022-09-29T12:22:53;1.23;;;0.50;;
19794;SDS011;10057;59.402;17.866;2022-09-29T12:25:24;1.77;;;0.70;;
19794;SDS011;10057;59.402;17.866;2022-09-29T12:27:53;2.03;;;0.90;;
19794;SDS011;10057;59.402;17.866;2022-09-29T12:30:27;0.90;;;0.60;;
19794;SDS011;10057;59.402;17.866;2022-09-29T12:33:00;4.37;;;0.70;;
19794;SDS011;10057;59.402;17.866;2022-09-29T12:35:34;0.87;;;0.60;;
19794;SDS011;10057;59.402;17.866;2022-09-29T12:38:27;2.47;;;0.80;;
19794;SDS011;10057;59.402;17.866;2022-09-29T12:41:11;0.77;;;0.60;;
19794;SDS011;10057;59.402;17.866;2022-09-29T12:43:47;2.20;;;0.90;;
19794;SDS011;10057;59.402;17.866;2022-09-29T12:49:03;1.13;;;0.60;;
19794;SDS011;10057;59.402;17.866;2022-09-29T12:51:54;4.23;;;0.80;;
19794;SDS011;10057;59.402;17.866;2022-09-29T12:54:34;1.03;;;0.50;;
19794;SDS011;10057;59.402;17.866;2022-09-29T12:59:46;0.90;;;0.60;;
19794;SDS011;10057;59.402;17.866;2022-09-29T13:20:41;1.97;;;0.77;;
19794;SDS011;10057;59.402;17.866;2022-09-29T13:28:54;1.00;;;0.50;;
19794;SDS011;10057;59.402;17.866;2022-09-29T13:31:28;1.20;;;0.70;;
19794;SDS011;10057;59.402;17.866;2022-09-29T13:34:01;0.97;;;0.60;;
19794;SDS011;10057;59.402;17.866;2022-09-29T13:36:38;1.07;;;0.60;;
19794;SDS011;10057;59.402;17.866;2022-09-29T13:39:19;3.93;;;0.80;;
19794;SDS011;10057;59.402;17.866;2022-09-29T13:41:52;1.43;;;0.70;;
19794;SDS011;10057;59.402;17.866;2022-09-29T13:44:26;1.03;;;0.60;;
19794;SDS011;10057;59.402;17.866;2022-09-29T13:46:54;3.07;;;0.77;;
19794;SDS011;10057;59.402;17.866;2022-09-29T13:49:26;1.27;;;0.63;;
19794;SDS011;10057;59.402;17.866;2022-09-29T13:54:42;1.27;;;0.70;;
19794;SDS011;10057;59.402;17.866;2022-09-29T13:59:43;3.73;;;0.70;;
19794;SDS011;10057;59.402;17.866;2022-09-29T14:02:34;1.03;;;0.67;;
19794;SDS011;10057;59.402;17.866;2022-09-29T14:05:04;3.50;;;0.77;;
19794;SDS011;10057;59.402;17.866;2022-09-29T14:08:06;2.57;;;0.83;;
19794;SDS011;10057;59.402;17.866;2022-09-29T14:10:46;0.80;;;0.60;;
19794;SDS011;10057;59.402;17.866;2022-09-29T14:18:27;1.57;;;0.73;;
19794;SDS011;10057;59.402;17.866;2022-09-29T14:21:00;1.43;;;0.83;;
19794;SDS011;10057;59.402;17.866;2022-09-29T14:29:20;2.07;;;0.73;;
19794;SDS011;10057;59.402;17.866;2022-09-29T14:31:54;4.47;;;0.60;;
19794;SDS011;10057;59.402;17.866;2022-09-29T14:34:25;2.50;;;0.97;;
19794;SDS011;10057;59.402;17.866;2022-09-29T14:36:55;3.77;;;1.40;;
19794;SDS011;10057;59.402;17.866;2022-09-29T14:39:24;1.20;;;0.67;;
19794;SDS011;10057;59.402;17.866;2022-09-29T14:41:52;4.27;;;0.90;;
19794;SDS011;10057;59.402;17.866;2022-09-29T14:44:21;0.97;;;0.70;;
19794;SDS011;10057;59.402;17.866;2022-09-29T14:47:37;1.03;;;0.73;;
19794;SDS011;10057;59.402;17.866;2022-09-29T14:54:04;3.03;;;0.67;;
19794;SDS011;10057;59.402;17.866;2022-09-29T14:56:44;1.50;;;0.60;;
19794;SDS011;10057;59.402;17.866;2022-09-29T14:59:41;3.23;;;0.83;;
19794;SDS011;10057;59.402;17.866;2022-09-29T15:02:18;1.80;;;0.60;;
19794;SDS011;10057;59.402;17.866;2022-09-29T15:04:46;1.97;;;0.83;;
19794;SDS011;10057;59.402;17.866;2022-09-29T15:07:24;3.00;;;0.90;;
19794;SDS011;10057;59.402;17.866;2022-09-29T15:09:54;7.20;;;0.90;;
19794;SDS011;10057;59.402;17.866;2022-09-29T15:12:26;1.90;;;0.73;;
19794;SDS011;10057;59.402;17.866;2022-09-29T15:14:54;0.80;;;0.67;;
19794;SDS011;10057;59.402;17.866;2022-09-29T15:17:43;2.60;;;1.30;;
19794;SDS011;10057;59.402;17.866;2022-09-29T15:20:54;6.43;;;3.20;;
19794;SDS011;10057;59.402;17.866;2022-09-29T15:26:07;5.27;;;1.97;;
19794;SDS011;10057;59.402;17.866;2022-09-29T15:28:38;1.47;;;0.87;;
19794;SDS011;10057;59.402;17.866;2022-09-29T15:31:10;1.37;;;0.70;;
19794;SDS011;10057;59.402;17.866;2022-09-29T15:33:52;1.70;;;1.13;;
19794;SDS011;10057;59.402;17.866;2022-09-29T15:36:20;1.93;;;0.87;;
19794;SDS011;10057;59.402;17.866;2022-09-29T15:38:57;1.10;;;0.70;;
19794;SDS011;10057;59.402;17.866;2022-09-29T15:41:29;1.27;;;0.70;;
19794;SDS011;10057;59.402;17.866;2022-09-29T15:44:11;2.03;;;0.90;;
19794;SDS011;10057;59.402;17.866;2022-09-29T15:46:47;3.03;;;0.77;;
19794;SDS011;10057;59.402;17.866;2022-09-29T15:49:16;2.67;;;0.70;;
19794;SDS011;10057;59.402;17.866;2022-09-29T15:51:55;1.10;;;0.80;;
19794;SDS011;10057;59.402;17.866;2022-09-29T15:57:06;2.70;;;0.80;;
19794;SDS011;10057;59.402;17.866;2022-09-29T15:59:52;1.20;;;0.80;;
19794;SDS011;10057;59.402;17.866;2022-09-29T16:04:54;2.37;;;0.80;;
19794;SDS011;10057;59.402;17.866;2022-09-29T16:07:25;2.03;;;0.97;;
19794;SDS011;10057;59.402;17.866;2022-09-29T16:10:02;2.77;;;0.80;;
19794;SDS011;10057;59.402;17.866;2022-09-29T16:12:39;2.67;;;0.93;;
19794;SDS011;10057;59.402;17.866;2022-09-29T16:15:19;1.47;;;0.80;;
19794;SDS011;10057;59.402;17.866;2022-09-29T16:18:12;4.30;;;0.90;;
19794;SDS011;10057;59.402;17.866;2022-09-29T16:20:45;2.57;;;0.80;;
19794;SDS011;10057;59.402;17.866;2022-09-29T16:23:25;4.50;;;1.00;;
19794;SDS011;10057;59.402;17.866;2022-09-29T16:28:33;4.83;;;0.93;;
19794;SDS011;10057;59.402;17.866;2022-09-29T16:31:18;1.73;;;1.07;;
19794;SDS011;10057;59.402;17.866;2022-09-29T16:33:51;1.57;;;0.73;;
19794;SDS011;10057;59.402;17.866;2022-09-29T16:36:21;5.70;;;1.20;;
19794;SDS011;10057;59.402;17.866;2022-09-29T16:38:52;1.07;;;0.70;;
19794;SDS011;10057;59.402;17.866;2022-09-29T16:41:24;1.87;;;0.87;;
19794;SDS011;10057;59.402;17.866;2022-09-29T16:47:11;2.77;;;1.17;;
19794;SDS011;10057;59.402;17.866;2022-09-29T16:49:47;2.43;;;1.07;;
19794;SDS011;10057;59.402;17.866;2022-09-29T16:52:20;1.23;;;0.93;;
19794;SDS011;10057;59.402;17.866;2022-09-29T16:54:52;5.20;;;1.30;;
19794;SDS011;10057;59.402;17.866;2022-09-29T16:57:31;2.30;;;1.20;;
19794;SDS011;10057;59.402;17.866;2022-09-29T17:00:08;1.60;;;0.97;;
19794;SDS011;10057;59.402;17.866;2022-09-29T17:02:38;5.73;;;1.23;;
19794;SDS011;10057;59.402;17.866;2022-09-29T17:05:04;1.40;;;0.90;;
19794;SDS011;10057;59.402;17.866;2022-09-29T17:07:31;3.07;;;1.20;;
19794;SDS011;10057;59.402;17.866;2022-09-29T17:10:06;3.13;;;0.97;;
19794;SDS011;10057;59.402;17.866;2022-09-29T17:12:41;2.37;;;1.20;;
19794;SDS011;10057;59.402;17.866;2022-09-29T17:15:11;2.40;;;1.20;;
19794;SDS011;10057;59.402;17.866;2022-09-29T17:17:39;5.00;;;1.23;;
19794;SDS011;10057;59.402;17.866;2022-09-29T17:20:12;3.03;;;1.00;;
19794;SDS011;10057;59.402;17.866;2022-09-29T17:22:42;2.40;;;0.80;;
19794;SDS011;10057;59.402;17.866;2022-09-29T17:25:10;1.90;;;1.00;;
19794;SDS011;10057;59.402;17.866;2022-09-29T17:27:38;7.47;;;1.10;;
19794;SDS011;10057;59.402;17.866;2022-09-29T17:30:25;4.93;;;1.03;;
19794;SDS011;10057;59.402;17.866;2022-09-29T17:32:54;3.97;;;1.20;;
19794;SDS011;10057;59.402;17.866;2022-09-29T17:35:44;2.50;;;1.17;;
19794;SDS011;10057;59.402;17.866;2022-09-29T17:38:21;3.47;;;1.20;;
19794;SDS011;10057;59.402;17.866;2022-09-29T17:43:29;8.63;;;1.30;;
19794;SDS011;10057;59.402;17.866;2022-09-29T17:45:59;3.27;;;1.57;;
19794;SDS011;10057;59.402;17.866;2022-09-29T17:48:27;3.10;;;1.33;;